createdAt,value
2023-05-12T00:01:45.022Z,11.04
2023-05-12T00:04:41.969Z,11.15
2023-05-12T00:07:38.866Z,10.92
2023-05-12T00:10:35.757Z,11.00
2023-05-12T00:13:32.624Z,11.06
2023-05-12T00:16:29.581Z,11.31
2023-05-12T00:19:26.797Z,11.30
2023-05-12T00:22:23.794Z,11.10
2023-05-12T00:25:20.626Z,10.92
2023-05-12T00:28:18.761Z,11.08
2023-05-12T00:31:16.209Z,11.15
2023-05-12T00:34:13.078Z,11.25
2023-05-12T00:37:11.049Z,11.22
2023-05-12T00:40:09.330Z,11.03
2023-05-12T00:43:06.210Z,11.28
2023-05-12T00:46:06.218Z,11.19
2023-05-12T00:49:03.311Z,11.19
2023-05-12T00:52:00.264Z,11.30
2023-05-12T00:54:58.542Z,11.46
2023-05-12T00:57:56.029Z,11.30
2023-05-12T01:00:52.887Z,11.10
2023-05-12T01:03:50.009Z,11.10
2023-05-12T01:07:07.519Z,11.02
2023-05-12T01:10:04.861Z,10.90
2023-05-12T01:13:01.682Z,10.92
2023-05-12T01:16:02.473Z,11.33
2023-05-12T01:19:00.364Z,11.13
2023-05-12T01:21:58.178Z,10.83
2023-05-12T01:25:02.588Z,10.98
2023-05-12T01:28:00.357Z,10.87
2023-05-12T01:30:57.330Z,11.25
2023-05-12T01:33:54.303Z,10.68
2023-05-12T01:36:51.221Z,10.92
2023-05-12T01:39:48.238Z,10.94
2023-05-12T01:42:45.110Z,10.99
2023-05-12T01:45:41.989Z,11.01
2023-05-12T01:48:38.852Z,11.25
2023-05-12T01:51:35.893Z,11.10
2023-05-12T01:54:32.869Z,11.20
2023-05-12T01:57:29.735Z,11.25
2023-05-12T02:00:27.284Z,11.20
2023-05-12T02:03:24.262Z,11.25
2023-05-12T02:06:22.294Z,11.10
2023-05-12T02:09:19.175Z,11.21
2023-05-12T02:12:16.044Z,11.33
2023-05-12T02:15:12.986Z,11.32
2023-05-12T02:18:09.886Z,11.08
2023-05-12T02:21:07.014Z,11.24
2023-05-12T02:24:04.105Z,11.21
2023-05-12T02:27:01.012Z,11.01
2023-05-12T02:29:57.848Z,10.93
2023-05-12T02:32:54.724Z,11.14
2023-05-12T02:35:51.555Z,10.93
2023-05-12T02:38:48.466Z,11.04
2023-05-12T02:41:45.401Z,10.86
2023-05-12T02:44:42.276Z,11.09
2023-05-12T02:47:39.212Z,11.19
2023-05-12T02:50:36.168Z,11.14
2023-05-12T02:53:33.050Z,10.97
2023-05-12T02:56:31.882Z,10.75
2023-05-12T02:59:30.699Z,10.75
2023-05-12T03:02:28.083Z,10.98
2023-05-12T03:05:25.026Z,10.77
2023-05-12T03:08:22.258Z,10.62
2023-05-12T03:11:19.083Z,10.67
2023-05-12T03:14:16.055Z,10.63
2023-05-12T03:17:13.040Z,10.56
2023-05-12T03:20:10.443Z,10.70
2023-05-12T03:23:07.299Z,10.85
2023-05-12T03:26:04.248Z,10.71
2023-05-12T03:29:01.115Z,10.81
2023-05-12T03:31:58.042Z,10.49
2023-05-12T03:34:55.175Z,10.76
2023-05-12T03:37:52.025Z,10.92
2023-05-12T03:40:52.837Z,10.81
2023-05-12T03:43:49.896Z,10.82
2023-05-12T03:46:46.952Z,10.81
2023-05-12T03:49:44.029Z,10.91
2023-05-12T03:52:41.450Z,10.92
2023-05-12T03:55:38.618Z,11.02
2023-05-12T03:58:35.852Z,11.13
2023-05-12T04:01:32.746Z,10.99
2023-05-12T04:04:29.687Z,10.92
2023-05-12T04:07:26.794Z,10.87
2023-05-12T04:10:23.631Z,10.87
2023-05-12T04:13:20.457Z,10.83
2023-05-12T04:16:17.304Z,11.00
2023-05-12T04:19:14.183Z,10.96
2023-05-12T04:22:11.057Z,10.86
2023-05-12T04:25:08.572Z,10.71
2023-05-12T04:28:05.698Z,10.84
2023-05-12T04:31:06.975Z,10.89
2023-05-12T04:34:03.901Z,10.79
2023-05-12T04:37:01.099Z,11.00
2023-05-12T04:39:57.920Z,11.21
2023-05-12T04:42:55.007Z,11.29
2023-05-12T04:45:54.194Z,11.10
2023-05-12T04:48:51.081Z,11.03
2023-05-12T04:51:48.183Z,10.89
2023-05-12T04:54:45.054Z,10.97
2023-05-12T04:57:41.895Z,10.57
2023-05-12T05:00:38.910Z,10.90
2023-05-12T05:03:35.999Z,10.95
2023-05-12T05:06:33.118Z,11.08
2023-05-12T05:09:30.068Z,10.97
2023-05-12T05:12:26.982Z,11.03
2023-05-12T05:15:23.811Z,11.32
2023-05-12T05:18:23.777Z,11.62
2023-05-12T05:21:21.190Z,11.44
2023-05-12T05:24:18.059Z,11.28
2023-05-12T05:27:14.911Z,11.57
2023-05-12T05:30:12.113Z,11.73
2023-05-12T05:33:09.098Z,11.83
2023-05-12T05:36:06.558Z,11.67
2023-05-12T05:39:03.456Z,11.66
2023-05-12T05:42:00.281Z,11.63
2023-05-12T05:44:57.186Z,12.01
2023-05-12T05:47:54.172Z,12.11
2023-05-12T05:50:52.917Z,12.15
2023-05-12T05:53:49.752Z,12.18
2023-05-12T05:56:46.611Z,12.20
2023-05-12T05:59:43.793Z,12.06
2023-05-12T06:02:41.999Z,12.11
2023-05-12T06:05:39.164Z,12.31
2023-05-12T06:08:35.993Z,12.41
2023-05-12T06:11:32.837Z,12.45
2023-05-12T06:14:29.719Z,12.39
2023-05-12T06:17:26.793Z,12.46
2023-05-12T06:20:23.726Z,12.55
2023-05-12T06:23:20.547Z,12.52
2023-05-12T06:26:17.517Z,12.52
2023-05-12T06:29:15.209Z,12.73
2023-05-12T06:32:12.065Z,12.81
2023-05-12T06:35:09.408Z,12.63
2023-05-12T06:38:06.524Z,12.86
2023-05-12T06:41:03.580Z,12.70
2023-05-12T06:44:02.322Z,12.78
2023-05-12T06:46:59.367Z,12.84
2023-05-12T06:49:56.199Z,12.96
2023-05-12T06:52:53.483Z,12.85
2023-05-12T06:55:51.140Z,12.80
2023-05-12T06:58:48.251Z,12.78
2023-05-12T07:01:45.316Z,13.03
2023-05-12T07:04:42.284Z,12.60
2023-05-12T07:07:39.112Z,12.76
2023-05-12T07:10:35.993Z,13.13
2023-05-12T07:13:44.767Z,13.03
2023-05-12T07:16:45.357Z,13.17
2023-05-12T07:19:43.550Z,13.00
2023-05-12T07:22:40.542Z,13.00
2023-05-12T07:25:38.005Z,13.32
2023-05-12T07:28:36.529Z,13.22
2023-05-12T07:31:34.071Z,13.29
2023-05-12T07:34:33.871Z,13.45
2023-05-12T07:37:30.713Z,13.45
2023-05-12T07:40:27.595Z,13.66
2023-05-12T07:43:24.730Z,13.65
2023-05-12T07:46:21.923Z,13.74
2023-05-12T07:49:18.884Z,13.73
2023-05-12T07:52:15.712Z,14.14
2023-05-12T07:55:12.560Z,14.41
2023-05-12T07:58:09.521Z,14.83
2023-05-12T08:01:06.942Z,15.12
2023-05-12T08:04:04.011Z,15.59
2023-05-12T08:07:01.142Z,15.83
2023-05-12T08:09:57.995Z,16.21
2023-05-12T08:12:55.289Z,16.54
2023-05-12T08:15:52.236Z,16.68
2023-05-12T08:18:49.175Z,16.96
2023-05-12T08:21:46.139Z,18.53
2023-05-12T08:24:43.273Z,18.08
2023-05-12T08:27:40.184Z,17.63
2023-05-12T08:30:37.472Z,17.56
2023-05-12T08:33:37.290Z,17.42
2023-05-12T08:36:34.332Z,17.54
2023-05-12T08:39:31.975Z,19.00
2023-05-12T08:42:44.465Z,19.50
2023-05-12T08:45:41.742Z,21.17
2023-05-12T08:48:40.502Z,21.02
2023-05-12T08:51:38.238Z,19.93
2023-05-12T08:54:48.569Z,20.37
2023-05-12T08:57:50.069Z,21.55
2023-05-12T09:00:47.972Z,19.91
2023-05-12T09:03:45.350Z,20.00
2023-05-12T09:06:43.500Z,20.71
2023-05-12T09:09:44.208Z,21.37
2023-05-12T09:12:42.740Z,21.20
2023-05-12T09:15:45.916Z,22.63
2023-05-12T09:18:55.427Z,20.68
2023-05-12T09:21:52.664Z,21.57
2023-05-12T09:24:49.748Z,21.71
2023-05-12T09:27:49.264Z,20.92
2023-05-12T09:30:46.202Z,20.41
2023-05-12T09:33:43.105Z,19.06
2023-05-12T09:36:40.008Z,18.92
2023-05-12T09:39:37.171Z,18.21
2023-05-12T09:42:35.668Z,18.37
2023-05-12T09:45:37.018Z,18.13
2023-05-12T09:48:34.057Z,18.13
2023-05-12T09:51:31.480Z,18.17
2023-05-12T09:54:30.369Z,18.81
2023-05-12T09:57:29.777Z,18.48
2023-05-12T10:00:41.186Z,18.91
2023-05-12T10:03:48.775Z,18.46
2023-05-12T10:06:47.407Z,18.43
2023-05-12T10:09:45.334Z,18.63
2023-05-12T10:12:42.445Z,19.01
2023-05-12T10:15:39.682Z,18.53
2023-05-12T10:18:37.280Z,18.66
2023-05-12T10:21:36.584Z,18.73
2023-05-12T10:24:34.558Z,18.77
2023-05-12T10:27:33.309Z,18.84
2023-05-12T10:30:31.080Z,20.28
2023-05-12T10:33:28.464Z,19.84
2023-05-12T10:36:26.032Z,19.14
2023-05-12T10:39:29.992Z,19.15
2023-05-12T10:42:27.044Z,19.10
2023-05-12T10:45:24.342Z,18.81
2023-05-12T10:48:21.157Z,18.63
2023-05-12T10:51:28.808Z,18.30
2023-05-12T10:54:26.777Z,18.22
2023-05-12T10:57:23.782Z,17.79
2023-05-12T11:00:26.777Z,17.39
2023-05-12T11:03:25.848Z,17.80
2023-05-12T11:06:24.209Z,17.66
2023-05-12T11:09:21.892Z,17.35
2023-05-12T11:12:19.235Z,17.46
2023-05-12T11:15:18.050Z,17.50
2023-05-12T11:18:21.804Z,17.04
2023-05-12T11:21:18.662Z,17.07
2023-05-12T11:24:16.663Z,16.83
2023-05-12T11:27:19.873Z,16.89
2023-05-12T11:30:17.120Z,17.18
2023-05-12T11:33:14.726Z,17.59
2023-05-12T11:36:11.571Z,17.87
2023-05-12T11:39:22.889Z,17.93
2023-05-12T11:42:21.161Z,18.26
2023-05-12T11:45:26.045Z,19.21
2023-05-12T11:48:31.956Z,17.82
2023-05-12T11:51:28.904Z,17.39
2023-05-12T11:54:28.046Z,17.56
2023-05-12T11:57:36.155Z,17.66
2023-05-12T12:00:35.940Z,17.59
2023-05-12T12:03:32.910Z,17.90
2023-05-12T12:06:29.800Z,18.46
2023-05-12T12:09:52.757Z,17.94
2023-05-12T12:12:49.634Z,17.82
2023-05-12T12:15:46.565Z,18.13
2023-05-12T12:18:43.486Z,17.42
2023-05-12T12:21:40.547Z,17.78
2023-05-12T12:24:37.405Z,17.80
2023-05-12T12:27:34.260Z,18.33
2023-05-12T12:30:31.452Z,18.13
2023-05-12T12:33:28.406Z,18.27
2023-05-12T12:36:25.284Z,18.93
2023-05-12T12:39:23.229Z,19.19
2023-05-12T12:42:20.182Z,20.64
2023-05-12T12:45:19.283Z,20.41
2023-05-12T12:48:18.458Z,20.50
2023-05-12T12:51:15.330Z,20.04
2023-05-12T12:54:12.173Z,19.70
2023-05-12T12:57:09.185Z,19.16
2023-05-12T13:00:08.537Z,19.16
2023-05-12T13:03:06.495Z,19.76
2023-05-12T13:06:09.140Z,19.75
2023-05-12T13:09:09.162Z,19.30
2023-05-12T13:12:06.766Z,19.86
2023-05-12T13:15:03.968Z,19.84
2023-05-12T13:18:01.094Z,20.75
2023-05-12T13:20:58.324Z,19.62
2023-05-12T13:23:55.257Z,19.33
2023-05-12T13:26:52.269Z,18.47
2023-05-12T13:29:49.243Z,18.28
2023-05-12T13:32:46.887Z,18.69
2023-05-12T13:35:43.768Z,19.03
2023-05-12T13:38:40.831Z,18.80
2023-05-12T13:41:37.727Z,17.99
2023-05-12T13:44:34.599Z,18.31
2023-05-12T13:47:31.500Z,18.05
2023-05-12T13:50:29.825Z,17.18
2023-05-12T13:53:27.902Z,16.83
2023-05-12T13:56:26.767Z,17.49
2023-05-12T13:59:23.704Z,17.17
2023-05-12T14:02:20.619Z,18.21
2023-05-12T14:05:17.750Z,17.72
2023-05-12T14:08:14.663Z,17.86
2023-05-12T14:11:11.555Z,17.00
2023-05-12T14:14:08.499Z,16.62
2023-05-12T14:17:05.446Z,16.26
2023-05-12T14:20:06.284Z,16.09
2023-05-12T14:23:03.205Z,16.29
2023-05-12T14:26:00.129Z,16.88
2023-05-12T14:28:57.293Z,15.25
2023-05-12T14:31:54.246Z,15.13
2023-05-12T14:34:51.137Z,15.70
2023-05-12T14:37:47.975Z,14.59
2023-05-12T14:40:46.320Z,14.08
2023-05-12T14:43:43.231Z,14.85
2023-05-12T14:46:40.080Z,14.83
2023-05-12T14:49:37.210Z,14.43
2023-05-12T14:52:38.304Z,14.52
2023-05-12T14:55:35.141Z,14.42
2023-05-12T14:58:32.111Z,14.61
2023-05-12T15:01:29.077Z,14.50
2023-05-12T15:04:27.156Z,14.49
2023-05-12T15:07:23.993Z,14.73
2023-05-12T15:10:20.867Z,14.48
2023-05-12T15:13:20.244Z,15.02
2023-05-12T15:16:17.328Z,14.66
2023-05-12T15:19:15.290Z,14.86
2023-05-12T15:22:12.292Z,15.03
2023-05-12T15:25:09.594Z,15.08
2023-05-12T15:28:09.670Z,15.58
2023-05-12T15:31:06.532Z,15.93
2023-05-12T15:34:03.463Z,16.15
2023-05-12T15:37:00.446Z,15.45
2023-05-12T15:39:57.336Z,17.75
2023-05-12T15:42:54.166Z,19.17
2023-05-12T15:45:50.990Z,20.08
2023-05-12T15:48:50.718Z,18.93
2023-05-12T15:51:47.577Z,19.30
2023-05-12T15:54:44.410Z,19.10
2023-05-12T15:57:41.560Z,18.06
2023-05-12T16:00:38.480Z,17.64
2023-05-12T16:03:35.362Z,18.26
2023-05-12T16:06:32.298Z,19.35
2023-05-12T16:09:29.120Z,19.21
2023-05-12T16:12:26.156Z,18.83
2023-05-12T16:15:23.085Z,17.78
2023-05-12T16:18:20.011Z,17.62
2023-05-12T16:21:16.878Z,17.63
2023-05-12T16:24:13.696Z,17.51
2023-05-12T16:27:10.587Z,18.04
2023-05-12T16:30:08.584Z,18.12
2023-05-12T16:33:07.194Z,18.67
2023-05-12T16:36:04.267Z,19.56
2023-05-12T16:39:01.103Z,20.12
2023-05-12T16:41:58.329Z,20.36
2023-05-12T16:44:55.258Z,19.69
2023-05-12T16:47:52.331Z,20.18
2023-05-12T16:50:49.235Z,19.95
2023-05-12T16:53:46.359Z,20.01
2023-05-12T16:56:43.202Z,18.27
2023-05-12T16:59:40.037Z,18.56
2023-05-12T17:02:37.089Z,19.13
2023-05-12T17:05:34.076Z,19.50
2023-05-12T17:08:30.968Z,19.12
2023-05-12T17:11:27.878Z,18.59
2023-05-12T17:14:24.760Z,18.14
2023-05-12T17:17:21.759Z,17.88
2023-05-12T17:20:18.930Z,18.05
2023-05-12T17:23:16.615Z,17.78
2023-05-12T17:26:13.457Z,17.38
2023-05-12T17:29:10.405Z,17.42
2023-05-12T17:32:07.480Z,16.89
2023-05-12T17:35:04.812Z,16.87
2023-05-12T17:38:01.986Z,17.17
2023-05-12T17:40:58.913Z,16.78
2023-05-12T17:43:55.823Z,16.62
2023-05-12T17:46:52.679Z,16.55
2023-05-12T17:49:49.538Z,16.09
2023-05-12T17:52:46.362Z,16.31
2023-05-12T17:55:43.199Z,16.42
2023-05-12T17:58:40.063Z,15.87
2023-05-12T18:01:36.968Z,15.87
2023-05-12T18:04:34.743Z,16.14
2023-05-12T18:07:32.143Z,15.33
2023-05-12T18:10:29.066Z,15.16
2023-05-12T18:13:25.894Z,15.20
2023-05-12T18:16:29.182Z,14.79
2023-05-12T18:19:27.401Z,14.76
2023-05-12T18:22:24.627Z,15.29
2023-05-12T18:25:21.599Z,14.94
2023-05-12T18:28:18.558Z,14.76
2023-05-12T18:31:19.473Z,15.20
2023-05-12T18:34:16.727Z,15.23
2023-05-12T18:37:15.531Z,14.83
2023-05-12T18:40:12.728Z,14.49
2023-05-12T18:43:09.584Z,14.68
2023-05-12T18:46:06.458Z,14.28
2023-05-12T18:49:03.811Z,14.57
2023-05-12T18:52:00.753Z,14.44
2023-05-12T18:54:57.683Z,14.39
2023-05-12T18:57:54.576Z,13.95
2023-05-12T19:00:52.651Z,14.15
2023-05-12T19:03:50.521Z,14.15
2023-05-12T19:06:47.857Z,14.15
2023-05-12T19:09:45.158Z,14.45
2023-05-12T19:12:42.171Z,14.06
2023-05-12T19:15:39.321Z,13.89
2023-05-12T19:18:36.183Z,13.72
2023-05-12T19:21:33.597Z,13.50
2023-05-12T19:24:30.556Z,13.33
2023-05-12T19:27:28.137Z,13.19
2023-05-12T19:30:26.787Z,13.31
2023-05-12T19:33:23.759Z,13.27
2023-05-12T19:36:20.611Z,13.07
2023-05-12T19:39:17.452Z,13.35
2023-05-12T19:42:14.354Z,13.47
2023-05-12T19:45:11.632Z,13.43
2023-05-12T19:48:08.657Z,13.87
2023-05-12T19:51:05.575Z,13.59
2023-05-12T19:54:04.749Z,12.64
2023-05-12T19:57:02.088Z,13.10
2023-05-12T19:59:58.920Z,13.38
2023-05-12T20:02:56.074Z,12.94
2023-05-12T20:05:53.170Z,12.95
2023-05-12T20:08:49.992Z,13.08
2023-05-12T20:11:46.829Z,13.25
2023-05-12T20:14:43.729Z,13.33
2023-05-12T20:17:40.598Z,13.12
2023-05-12T20:20:37.486Z,13.00
2023-05-12T20:23:34.378Z,13.25
2023-05-12T20:26:31.236Z,13.38
2023-05-12T20:29:30.210Z,13.38
2023-05-12T20:32:27.173Z,12.77
2023-05-12T20:35:24.204Z,13.05
2023-05-12T20:38:21.232Z,12.81
2023-05-12T20:41:18.676Z,12.90
2023-05-12T20:44:15.646Z,12.58
2023-05-12T20:47:13.086Z,12.65
2023-05-12T20:50:11.842Z,13.21
2023-05-12T20:53:08.682Z,12.86
2023-05-12T20:56:08.214Z,12.94
2023-05-12T20:59:05.376Z,12.84
2023-05-12T21:02:02.246Z,12.74
2023-05-12T21:04:59.205Z,12.81
2023-05-12T21:07:56.460Z,12.75
2023-05-12T21:10:54.436Z,12.90
2023-05-12T21:13:51.273Z,12.91
2023-05-12T21:16:48.176Z,12.50
2023-05-12T21:19:45.328Z,12.51
2023-05-12T21:22:42.718Z,12.59
2023-05-12T21:25:39.927Z,12.40
2023-05-12T21:28:37.426Z,12.58
2023-05-12T21:31:34.288Z,12.59
2023-05-12T21:34:33.513Z,12.81
2023-05-12T21:37:30.454Z,12.77
2023-05-12T21:40:27.301Z,12.49
2023-05-12T21:43:24.178Z,12.32
2023-05-12T21:46:21.239Z,12.31
2023-05-12T21:49:18.220Z,12.28
2023-05-12T21:52:15.981Z,12.44
2023-05-12T21:55:12.996Z,12.54
2023-05-12T21:58:09.831Z,12.68
2023-05-12T22:01:07.063Z,12.26
2023-05-12T22:04:05.134Z,12.09
2023-05-12T22:07:02.167Z,12.05
2023-05-12T22:09:58.990Z,11.69
2023-05-12T22:12:56.481Z,12.06
2023-05-12T22:15:53.595Z,12.07
2023-05-12T22:18:50.761Z,11.87
2023-05-12T22:21:47.711Z,12.18
2023-05-12T22:24:44.934Z,11.88
2023-05-12T22:27:41.846Z,11.81
2023-05-12T22:30:38.673Z,11.86
2023-05-12T22:33:35.726Z,11.87
2023-05-12T22:36:32.579Z,11.81
2023-05-12T22:39:29.404Z,11.86
2023-05-12T22:42:26.278Z,11.90
2023-05-12T22:45:23.095Z,11.91
2023-05-12T22:48:20.397Z,11.76
2023-05-12T22:51:17.247Z,11.77
2023-05-12T22:54:14.091Z,11.80
2023-05-12T22:57:11.013Z,11.82
2023-05-12T23:00:08.775Z,11.71
2023-05-12T23:03:07.252Z,11.77
2023-05-12T23:06:04.311Z,11.82
2023-05-12T23:09:01.472Z,11.68
2023-05-12T23:11:58.310Z,11.63
2023-05-12T23:14:55.220Z,11.63
2023-05-12T23:17:52.317Z,11.75
2023-05-12T23:20:49.195Z,11.66
2023-05-12T23:23:46.021Z,11.48
2023-05-12T23:26:42.860Z,11.61
2023-05-12T23:29:39.757Z,11.44
2023-05-12T23:32:36.762Z,11.55
2023-05-12T23:35:33.800Z,11.53
2023-05-12T23:38:31.139Z,11.82
2023-05-12T23:41:31.539Z,11.42
2023-05-12T23:44:28.476Z,11.53
2023-05-12T23:47:25.411Z,11.76
2023-05-12T23:50:22.528Z,11.53
2023-05-12T23:53:19.811Z,11.39
2023-05-12T23:56:16.665Z,11.42
2023-05-12T23:59:13.546Z,11.32
